STB weather

Santa Barbara I Airport
Cajeme, Sonora, Mexico

Public forecast

Using degrees Celsius for public forecast. Weather courtesy of forecast.io.

METAR (pilot weather report)

Report is more than 6 hours old.

Closest report is Ciudad Obregón International Airport, 9.3 nm (17.2 km) ESE. Retrieved 2019/06/16 01:43 UTC (7 hours ago):

MMCN 160143Z 22007KT 10SM SKC 31/17 A2976 RMK HZY

TAF (pilot weather forecast)

Closest forecast is Ciudad Obregón International Airport, 9.3 nm (17.2 km) ESE. Retrieved 2019/06/16 06:51 UTC (2 hours ago):

TAF TAF MMCN 160449Z 1606/1706 23005KT P6SM SKC FM161900 20012KT P6SM SKC FM170300 23005KT P6SM SKC